Time;durP1;ratioP1;P1;durP2;ratioP2;P2;SDS_P1;SDS_P2;PMS_P1;PMS_P2;Temp;Humidity;BMP_temperature;BMP_pressure;BME280_temperature;BME280_humidity;BME280_pressure;Samples;Min_cycle;Max_cycle;Signal;HPM_P1;HPM_P2
2022/09/22 00:01:21;;;;;;;4.65;2.67;;;;;;;9.37;79.75;95854.78;1796140;79;20995;-75
2022/09/22 00:03:53;;;;;;;2.67;2.25;;;;;;;9.40;79.85;95846.43;1794389;80;21026;-76
2022/09/22 00:06:33;;;;;;;3.17;2.30;;;;;;;9.43;79.31;95845.08;1796161;80;20971;-76
2022/09/22 00:09:02;;;;;;;3.47;2.70;;;;;;;9.41;79.13;95845.98;1795516;79;21552;-76
2022/09/22 00:11:36;;;;;;;4.30;2.67;;;;;;;9.43;79.33;95846.84;1796303;80;21014;-77
2022/09/22 00:14:23;;;;;;;3.55;2.65;;;;;;;9.45;79.84;95848.57;1796112;80;21024;-76
2022/09/22 00:16:56;;;;;;;4.83;2.75;;;;;;;9.51;79.98;95845.86;1796247;79;21070;-76
2022/09/22 00:19:27;;;;;;;2.87;2.20;;;;;;;9.57;79.81;95848.00;1796189;80;20994;-75
2022/09/22 00:21:54;;;;;;;3.30;2.75;;;;;;;9.51;79.29;95848.50;1796232;80;21051;-77
2022/09/22 00:24:22;;;;;;;3.10;2.33;;;;;;;9.45;79.02;95851.20;1795710;80;21509;-76
2022/09/22 00:26:50;;;;;;;3.50;2.60;;;;;;;9.44;79.64;95842.86;1796330;80;21122;-76
2022/09/22 00:29:17;;;;;;;3.50;2.80;;;;;;;9.42;80.12;95846.39;1796179;79;21019;-76
2022/09/22 00:31:44;;;;;;;3.37;2.70;;;;;;;9.46;80.95;95844.17;1796307;80;20999;-76
2022/09/22 00:34:21;;;;;;;3.77;2.87;;;;;;;9.44;80.46;95844.17;1796211;79;21077;-76
2022/09/22 00:36:49;;;;;;;4.83;2.80;;;;;;;9.37;80.46;95844.25;1796056;80;21018;-76
2022/09/22 00:39:17;;;;;;;3.80;2.60;;;;;;;9.34;79.95;95832.44;1789551;80;21019;-76
2022/09/22 00:41:48;;;;;;;3.25;2.60;;;;;;;9.26;80.49;95834.70;1768299;80;21022;-76
2022/09/22 00:44:31;;;;;;;2.80;2.45;;;;;;;9.24;81.13;95841.73;1768449;80;21512;-78
2022/09/22 00:47:25;;;;;;;4.15;2.60;;;;;;;9.19;80.99;95842.67;1768654;80;21015;-78
2022/09/22 00:50:17;;;;;;;3.35;2.45;;;;;;;9.19;81.63;95838.72;1768459;80;21544;-78
2022/09/22 00:53:02;;;;;;;4.10;2.80;;;;;;;9.16;81.46;95839.63;1768352;80;21481;-78
2022/09/22 00:55:55;;;;;;;4.62;2.72;;;;;;;9.14;82.12;95837.44;1768264;80;21046;-78
2022/09/22 00:58:29;;;;;;;3.20;2.47;;;;;;;9.09;83.39;95830.03;1767968;81;21057;-78
2022/09/22 01:00:56;;;;;;;4.45;2.85;;;;;;;8.97;83.76;95824.45;1766988;81;21103;-78
2022/09/22 01:03:25;;;;;;;3.70;2.72;;;;;;;8.90;83.20;95827.16;1768512;80;20983;-77
2022/09/22 01:05:56;;;;;;;4.35;2.70;;;;;;;8.86;83.36;95830.23;1768505;80;21046;-78
2022/09/22 01:08:24;;;;;;;5.05;2.87;;;;;;;8.85;83.18;95825.42;1768323;80;21007;-78
2022/09/22 01:10:54;;;;;;;4.15;2.70;;;;;;;8.88;82.92;95829.78;1768415;81;21054;-78
2022/09/22 01:13:42;;;;;;;3.40;2.80;;;;;;;8.98;83.19;95830.14;1768586;80;20979;-79
2022/09/22 01:16:39;;;;;;;3.72;2.83;;;;;;;9.00;83.50;95820.47;1768338;81;21070;-79
2022/09/22 01:19:46;;;;;;;3.92;2.77;;;;;;;9.01;83.64;95820.89;1768678;80;21520;-78
2022/09/22 01:23:04;;;;;;;4.85;2.60;;;;;;;9.05;83.53;95824.39;1757690;81;21078;-79
2022/09/22 01:26:05;;;;;;;3.27;2.70;;;;;;;9.06;83.49;95824.35;1768415;81;21007;-78
2022/09/22 01:28:49;;;;;;;3.77;2.70;;;;;;;9.05;83.11;95825.25;1743094;81;21054;-79
2022/09/22 01:32:02;;;;;;;4.47;3.50;;;;;;;9.07;83.47;95828.75;1768622;80;21010;-79
2022/09/22 01:34:51;;;;;;;4.60;3.60;;;;;;;9.05;82.98;95825.25;1768603;80;21148;-78
2022/09/22 01:37:41;;;;;;;3.22;2.90;;;;;;;9.03;83.24;95820.44;1768386;81;21087;-78
2022/09/22 01:40:19;;;;;;;4.40;2.77;;;;;;;9.04;82.88;95818.67;1768281;80;21058;-79
2022/09/22 01:43:21;;;;;;;3.27;2.70;;;;;;;9.02;83.02;95822.66;1768066;81;21555;-79
2022/09/22 01:45:52;;;;;;;4.30;2.83;;;;;;;9.07;83.02;95816.00;1766227;81;21059;-78
2022/09/22 01:48:29;;;;;;;5.15;3.33;;;;;;;9.12;83.20;95812.89;1747364;81;21019;-78
2022/09/22 01:51:19;;;;;;;4.33;3.08;;;;;;;9.22;83.33;95811.94;1768399;80;21062;-78
2022/09/22 01:53:57;;;;;;;3.17;2.67;;;;;;;9.25;82.64;95809.27;1768514;80;21066;-79
2022/09/22 01:56:27;;;;;;;3.52;3.22;;;;;;;9.24;82.32;95814.54;1768733;80;21026;-78
2022/09/22 01:59:02;;;;;;;4.30;2.98;;;;;;;9.20;82.35;95817.66;1768507;80;21018;-78
2022/09/22 02:01:44;;;;;;;6.60;2.90;;;;;;;9.22;82.78;95814.99;1768654;80;21500;-78
2022/09/22 02:04:20;;;;;;;6.25;4.20;;;;;;;9.22;82.96;95813.67;1768549;81;21063;-78
2022/09/22 02:07:04;;;;;;;4.95;4.03;;;;;;;9.15;82.59;95810.25;1767882;81;21003;-78
2022/09/22 02:09:34;;;;;;;4.33;3.25;;;;;;;9.07;82.21;95805.06;1768487;80;21058;-78
2022/09/22 02:12:02;;;;;;;3.87;3.00;;;;;;;8.98;82.56;95811.71;1747151;81;21022;-78
2022/09/22 02:14:29;;;;;;;3.33;2.67;;;;;;;8.95;82.58;95811.75;1747053;81;20967;-79
2022/09/22 02:16:57;;;;;;;4.35;3.33;;;;;;;8.96;82.54;95812.61;1768628;80;21003;-78
2022/09/22 02:19:29;;;;;;;2.98;2.58;;;;;;;8.97;82.90;95807.77;1768601;81;21584;-78
2022/09/22 02:21:56;;;;;;;3.17;2.37;;;;;;;8.92;82.37;95805.62;1768617;80;21564;-79
2022/09/22 02:24:36;;;;;;;5.60;2.30;;;;;;;8.92;82.85;95809.56;1768539;80;21011;-78
2022/09/22 02:27:08;;;;;;;3.62;2.27;;;;;;;8.93;83.22;95813.97;1768447;81;21006;-78
2022/09/22 02:29:39;;;;;;;2.52;2.22;;;;;;;8.86;83.22;95810.05;1768647;81;20999;-78
2022/09/22 02:32:10;;;;;;;3.33;2.37;;;;;;;8.81;83.41;95814.48;1768492;81;21058;-78
2022/09/22 02:34:37;;;;;;;3.25;2.72;;;;;;;8.78;84.46;95816.27;1768613;80;21023;-78
2022/09/22 02:37:38;;;;;;;3.87;2.95;;;;;;;8.77;84.21;95814.51;1768785;80;21019;-79
2022/09/22 02:40:20;;;;;;;3.35;3.05;;;;;;;8.74;84.14;95817.17;1772714;80;21149;-78
2022/09/22 02:43:09;;;;;;;4.25;2.95;;;;;;;8.73;84.02;95817.63;1759328;81;21488;-78
2022/09/22 02:45:53;;;;;;;4.15;2.45;;;;;;;8.77;84.27;95814.09;1740198;82;21017;-78
2022/09/22 02:48:34;;;;;;;9.60;2.50;;;;;;;8.79;83.98;95811.43;1720960;82;21536;-78
2022/09/22 02:51:00;;;;;;;3.00;2.05;;;;;;;8.80;84.14;95816.70;1740186;82;21563;-78
2022/09/22 02:53:27;;;;;;;4.83;2.40;;;;;;;8.84;84.30;95818.84;1739982;82;21038;-76
2022/09/22 02:55:54;;;;;;;4.05;2.20;;;;;;;8.82;83.54;95817.56;1740087;82;21034;-77
2022/09/22 02:58:20;;;;;;;2.90;2.40;;;;;;;8.82;83.77;95812.30;1740262;82;21067;-77
2022/09/22 03:00:47;;;;;;;2.45;2.25;;;;;;;8.83;83.87;95814.48;1740030;82;21008;-77
2022/09/22 03:03:14;;;;;;;3.95;2.47;;;;;;;8.81;84.00;95817.11;1740012;82;21050;-77
2022/09/22 03:05:40;;;;;;;6.22;4.05;;;;;;;8.85;84.36;95815.34;1740284;82;21006;-77
2022/09/22 03:08:07;;;;;;;5.50;2.80;;;;;;;8.85;83.99;95814.89;1739707;82;21093;-76
2022/09/22 03:10:34;;;;;;;21.75;15.85;;;;;;;8.83;83.61;95813.16;1740330;82;21053;-77
2022/09/22 03:13:00;;;;;;;20.47;15.57;;;;;;;8.60;83.19;95818.16;1740041;82;20983;-77
2022/09/22 03:15:27;;;;;;;12.45;9.68;;;;;;;8.66;83.76;95818.55;1740047;82;21066;-77
2022/09/22 03:17:54;;;;;;;5.50;4.75;;;;;;;8.72;83.72;95817.63;1739892;82;21069;-78
2022/09/22 03:20:20;;;;;;;4.70;3.08;;;;;;;8.80;83.87;95811.88;1740293;82;20978;-78
2022/09/22 03:22:47;;;;;;;5.62;4.10;;;;;;;8.78;82.90;95823.72;1740166;82;20991;-78
2022/09/22 03:25:13;;;;;;;7.28;4.72;;;;;;;8.77;83.40;95813.20;1739987;82;21006;-78
2022/09/22 03:27:41;;;;;;;9.30;5.30;;;;;;;8.81;83.22;95814.93;1796194;80;20983;-78
2022/09/22 03:30:09;;;;;;;6.25;5.25;;;;;;;8.85;83.60;95816.21;1795960;80;21030;-78
2022/09/22 03:32:36;;;;;;;6.45;5.62;;;;;;;8.88;83.14;95817.49;1796297;80;21516;-78
2022/09/22 03:35:05;;;;;;;8.08;5.97;;;;;;;8.78;82.65;95825.03;1796217;80;21017;-78
2022/09/22 03:37:33;;;;;;;9.30;6.28;;;;;;;8.68;83.10;95827.31;1796264;80;20983;-78
2022/09/22 03:40:01;;;;;;;7.87;5.28;;;;;;;8.63;83.46;95826.47;1796028;79;21488;-77
2022/09/22 03:42:27;;;;;;;4.45;4.00;;;;;;;8.59;83.58;95826.95;1796350;79;21018;-78
2022/09/22 03:44:54;;;;;;;4.97;3.95;;;;;;;8.55;84.07;95825.66;1796303;79;20979;-78
2022/09/22 03:47:20;;;;;;;6.03;3.80;;;;;;;8.57;84.22;95826.08;1796321;80;21022;-77
2022/09/22 03:49:47;;;;;;;6.20;5.10;;;;;;;8.52;83.75;95825.24;1796289;80;20975;-77
2022/09/22 03:52:14;;;;;;;9.73;6.20;;;;;;;8.43;83.96;95824.84;1796150;80;20967;-77
2022/09/22 03:54:41;;;;;;;7.87;6.17;;;;;;;8.43;84.07;95828.78;1795900;79;21025;-77
2022/09/22 03:57:08;;;;;;;9.00;5.90;;;;;;;8.34;84.11;95826.63;1796242;80;20986;-76
2022/09/22 03:59:34;;;;;;;7.58;5.47;;;;;;;8.28;84.59;95826.67;1795938;79;21022;-77
2022/09/22 04:02:03;;;;;;;6.15;5.03;;;;;;;8.23;85.00;95829.32;1796266;80;21156;-76
2022/09/22 04:04:31;;;;;;;9.28;5.60;;;;;;;8.22;85.07;95827.59;1796206;80;21015;-77
2022/09/22 04:06:58;;;;;;;6.80;5.50;;;;;;;8.21;85.17;95828.45;1796424;80;21030;-76
2022/09/22 04:09:25;;;;;;;6.28;4.55;;;;;;;8.21;85.40;95828.03;1795757;79;21025;-76
2022/09/22 04:11:52;;;;;;;9.63;4.83;;;;;;;8.24;85.83;95831.95;1795915;80;21018;-77
2022/09/22 04:14:18;;;;;;;7.40;4.20;;;;;;;8.28;85.92;95834.56;1796178;80;21057;-76
2022/09/22 04:16:45;;;;;;;9.15;5.08;;;;;;;8.30;85.61;95834.98;1796284;80;21046;-76
2022/09/22 04:19:12;;;;;;;8.65;5.00;;;;;;;8.34;85.34;95834.50;1796222;79;21417;-76
2022/09/22 04:21:39;;;;;;;6.75;3.87;;;;;;;8.43;85.31;95838.44;1796217;79;20967;-76
2022/09/22 04:24:08;;;;;;;7.25;4.25;;;;;;;8.53;85.31;95834.86;1796304;80;21481;-76
2022/09/22 04:26:35;;;;;;;6.08;4.50;;;;;;;8.52;84.83;95839.70;1795991;79;21014;-76
2022/09/22 04:29:01;;;;;;;9.45;5.28;;;;;;;8.54;84.78;95837.95;1796358;79;20983;-76
2022/09/22 04:31:28;;;;;;;16.55;11.25;;;;;;;8.58;84.76;95844.04;1796223;80;20970;-76
2022/09/22 04:33:54;;;;;;;10.28;5.30;;;;;;;8.56;84.59;95840.09;1796115;79;20994;-76
2022/09/22 04:36:21;;;;;;;6.85;4.75;;;;;;;8.61;84.64;95841.38;1796291;80;21516;-76
2022/09/22 04:38:48;;;;;;;5.87;4.10;;;;;;;8.61;84.42;95837.44;1796334;79;21026;-76
2022/09/22 04:41:14;;;;;;;7.60;5.12;;;;;;;8.70;84.77;95846.59;1795780;80;21065;-76
2022/09/22 04:43:41;;;;;;;10.55;5.97;;;;;;;8.71;84.61;95835.62;1796298;79;20999;-76
2022/09/22 04:46:08;;;;;;;15.30;9.88;;;;;;;8.70;84.50;95841.33;1796078;80;20976;-76
2022/09/22 04:48:35;;;;;;;43.05;26.90;;;;;;;8.75;84.56;95839.53;1796316;80;20979;-76
2022/09/22 04:51:01;;;;;;;78.83;56.00;;;;;;;8.86;84.73;95838.13;1796486;80;21050;-76
2022/09/22 04:53:28;;;;;;;43.65;28.55;;;;;;;8.99;84.99;95837.13;1795986;80;21515;-76
2022/09/22 04:55:55;;;;;;;41.02;26.73;;;;;;;9.13;84.26;95837.03;1796352;79;21468;-76
2022/09/22 04:58:22;;;;;;;19.37;13.15;;;;;;;9.09;83.24;95833.53;1796548;79;21062;-75
2022/09/22 05:00:49;;;;;;;21.10;15.50;;;;;;;9.06;83.29;95840.59;1796374;80;20982;-75
2022/09/22 05:03:15;;;;;;;12.43;7.20;;;;;;;9.12;84.01;95839.66;1795389;79;21026;-78
2022/09/22 05:05:42;;;;;;;9.63;5.92;;;;;;;9.21;83.62;95835.64;1796231;80;21051;-75
2022/09/22 05:08:09;;;;;;;9.38;6.33;;;;;;;9.20;83.23;95833.91;1796306;80;21053;-72
2022/09/22 05:10:36;;;;;;;8.23;5.47;;;;;;;9.23;82.99;95832.55;1795741;80;21002;-77
2022/09/22 05:13:03;;;;;;;9.43;5.58;;;;;;;9.24;82.39;95827.70;1796286;79;21536;-75
2022/09/22 05:15:31;;;;;;;6.67;5.35;;;;;;;9.22;81.89;95830.38;1796199;80;21006;-77
2022/09/22 05:17:58;;;;;;;7.15;4.72;;;;;;;9.21;81.99;95841.77;1795644;80;21081;-78
2022/09/22 05:20:25;;;;;;;7.03;5.53;;;;;;;9.20;81.58;95832.14;1795144;80;21053;-77
2022/09/22 05:22:53;;;;;;;8.35;6.75;;;;;;;9.17;81.04;95844.44;1794887;80;21041;-78
2022/09/22 05:25:20;;;;;;;7.15;5.58;;;;;;;9.13;81.09;95840.11;1794837;80;21053;-84
2022/09/22 05:27:53;;;;;;;7.35;4.78;;;;;;;9.10;81.21;95839.24;1795156;80;21093;-79
2022/09/22 05:30:23;;;;;;;6.72;5.00;;;;;;;9.09;81.07;95838.80;1795076;79;21074;-74
2022/09/22 05:32:50;;;;;;;6.17;4.85;;;;;;;9.07;81.06;95837.96;1794576;80;21009;-76
2022/09/22 05:35:21;;;;;;;5.87;5.17;;;;;;;9.07;81.05;95835.75;1794758;80;21046;-72
2022/09/22 05:37:50;;;;;;;8.18;6.37;;;;;;;9.08;81.03;95845.41;1795977;79;20998;-76
2022/09/22 05:40:18;;;;;;;10.00;7.25;;;;;;;9.08;81.00;95844.09;1792218;80;21599;-70
2022/09/22 05:42:47;;;;;;;11.20;7.72;;;;;;;9.08;81.03;95848.04;1768115;80;20991;-69
2022/09/22 05:45:15;;;;;;;9.68;7.25;;;;;;;9.09;80.97;95853.27;1746382;81;20971;-72
2022/09/22 05:47:42;;;;;;;10.20;6.30;;;;;;;9.10;80.96;95851.54;1767842;81;21018;-75
2022/09/22 05:50:12;;;;;;;10.25;6.40;;;;;;;9.08;80.92;95853.30;1767615;80;21022;-71
2022/09/22 05:52:39;;;;;;;7.10;5.70;;;;;;;9.10;80.92;95849.77;1767459;80;21053;-75
2022/09/22 05:55:07;;;;;;;7.20;5.83;;;;;;;9.15;80.81;95854.11;1769397;80;21011;-71
2022/09/22 05:57:34;;;;;;;7.47;5.85;;;;;;;9.19;80.68;95854.06;1786478;80;21053;-74
2022/09/22 06:00:03;;;;;;;6.55;5.33;;;;;;;9.22;80.71;95855.80;1786927;80;21082;-71
2022/09/22 06:02:32;;;;;;;7.65;5.12;;;;;;;9.23;80.54;95859.75;1786485;80;21105;-77
2022/09/22 06:04:59;;;;;;;6.75;4.92;;;;;;;9.28;80.42;95857.95;1787053;80;21540;-76
2022/09/22 06:07:26;;;;;;;6.47;4.90;;;;;;;9.36;80.57;95853.92;1772341;80;21062;-81
2022/09/22 06:09:53;;;;;;;6.85;5.00;;;;;;;9.44;80.32;95853.39;1782270;80;20939;-75
2022/09/22 06:12:20;;;;;;;6.28;5.20;;;;;;;9.48;80.04;95850.30;1786736;80;21033;-75
2022/09/22 06:14:46;;;;;;;6.25;4.87;;;;;;;9.54;80.07;95848.91;1785984;80;21010;-79
2022/09/22 06:17:13;;;;;;;6.37;4.83;;;;;;;9.62;79.67;95856.73;1787050;80;20994;-70
2022/09/22 06:19:40;;;;;;;6.70;5.35;;;;;;;9.66;79.45;95851.41;1755972;80;21117;-72
2022/09/22 06:22:09;;;;;;;5.40;4.87;;;;;;;9.72;79.57;95860.55;1786889;80;21622;-68
2022/09/22 06:24:35;;;;;;;6.70;5.12;;;;;;;9.80;79.41;95856.97;1787269;80;21168;-68
2022/09/22 06:27:02;;;;;;;6.70;5.15;;;;;;;9.83;79.36;95855.19;1786894;80;21065;-71
2022/09/22 06:29:28;;;;;;;7.78;6.28;;;;;;;9.95;79.53;95860.73;1786583;80;21127;-71
2022/09/22 06:31:55;;;;;;;7.12;5.30;;;;;;;10.02;79.00;95862.87;1786467;80;21067;-71
2022/09/22 06:34:22;;;;;;;7.08;5.50;;;;;;;10.09;79.27;95861.91;1787416;80;20986;-69
2022/09/22 06:36:49;;;;;;;8.80;6.00;;;;;;;10.13;78.55;95860.54;1787400;80;21009;-76
2022/09/22 06:39:16;;;;;;;8.03;6.10;;;;;;;10.10;77.90;95859.23;1787645;80;20947;-75
2022/09/22 06:41:43;;;;;;;8.40;6.83;;;;;;;10.08;77.82;95860.14;1788136;80;21093;-70
2022/09/22 06:44:11;;;;;;;8.23;5.90;;;;;;;10.07;77.84;95861.91;1789889;80;21176;-70
2022/09/22 06:46:38;;;;;;;6.50;5.05;;;;;;;10.09;77.84;95858.81;1789737;80;21049;-67
2022/09/22 06:49:04;;;;;;;8.68;5.12;;;;;;;10.09;77.49;95856.64;1789790;80;21460;-73
2022/09/22 06:51:34;;;;;;;7.37;5.35;;;;;;;10.07;77.21;95853.14;1789614;80;21227;-70
2022/09/22 06:54:03;;;;;;;7.65;5.22;;;;;;;10.09;77.30;95850.91;1790617;80;21483;-74
2022/09/22 06:56:41;;;;;;;7.60;5.10;;;;;;;10.14;77.35;95853.04;1790343;80;21026;-72
2022/09/22 06:59:11;;;;;;;7.55;5.65;;;;;;;10.12;77.05;95853.95;1786744;80;21065;-70
2022/09/22 07:01:33;;;;;;;6.70;5.95;;;;;;;10.12;77.05;95860.55;1772561;81;20993;-73
2022/09/22 07:04:01;;;;;;;7.53;5.67;;;;;;;10.09;76.85;95856.18;1772355;81;20961;-71
2022/09/22 07:06:28;;;;;;;8.05;4.83;;;;;;;10.08;76.58;95854.87;1764447;81;21077;-75
2022/09/22 07:08:55;;;;;;;6.90;5.30;;;;;;;10.07;76.69;95854.45;1774103;80;20959;-75
2022/09/22 07:11:22;;;;;;;7.15;5.53;;;;;;;10.07;76.62;95855.32;1781144;80;21521;-76
2022/09/22 07:13:53;;;;;;;5.50;4.20;;;;;;;10.12;77.10;95857.91;1782035;80;21059;-77
2022/09/22 07:16:23;;;;;;;8.28;5.37;;;;;;;10.20;76.90;95857.35;1781663;80;21070;-76
2022/09/22 07:18:54;;;;;;;6.80;5.20;;;;;;;10.26;76.71;95857.30;1781097;80;21315;-75
2022/09/22 07:21:31;;;;;;;6.37;5.42;;;;;;;10.36;77.14;95854.13;1781936;80;21050;-76
2022/09/22 07:23:57;;;;;;;7.08;5.60;;;;;;;10.48;76.68;95855.28;1783048;80;21046;-76
2022/09/22 07:26:29;;;;;;;5.60;4.72;;;;;;;10.56;76.19;95848.12;1782587;80;21026;-77
2022/09/22 07:28:59;;;;;;;5.70;4.65;;;;;;;10.63;76.06;95849.34;1782285;80;20967;-71
2022/09/22 07:31:31;;;;;;;6.33;4.65;;;;;;;10.68;76.01;95851.00;1781663;80;21030;-72
2022/09/22 07:33:59;;;;;;;5.90;5.03;;;;;;;10.72;74.89;95856.67;1781772;80;21084;-71
2022/09/22 07:36:28;;;;;;;6.33;5.62;;;;;;;10.75;74.66;95851.80;1781581;80;21316;-77
2022/09/22 07:39:00;;;;;;;8.43;5.30;;;;;;;10.81;74.76;95853.04;1782373;80;21002;-72
2022/09/22 07:41:30;;;;;;;7.53;4.85;;;;;;;10.92;74.44;95854.19;1781323;80;20999;-67
2022/09/22 07:45:11;;;;;;;7.03;4.90;;;;;;;11.01;74.29;95854.91;1779687;81;21038;-71
2022/09/22 07:46:28;;;;;;;3.90;3.50;;;;;;;11.11;73.71;95854.28;1780314;80;21022;-71
2022/09/22 07:48:55;;;;;;;4.22;3.67;;;;;;;11.21;73.45;95854.59;1779094;81;21057;-72
2022/09/22 07:51:23;;;;;;;4.72;3.80;;;;;;;11.30;72.91;95854.87;1778977;81;21121;-72
2022/09/22 07:54:03;;;;;;;6.65;4.20;;;;;;;11.35;72.28;95851.69;1778866;81;21088;-76
2022/09/22 07:56:22;;;;;;;6.35;4.78;;;;;;;11.38;71.88;95851.63;1779266;80;21175;-73
2022/09/22 07:58:52;;;;;;;5.67;4.12;;;;;;;11.42;70.70;95857.30;1778667;81;21073;-73
2022/09/22 08:01:25;;;;;;;5.08;3.80;;;;;;;11.49;70.90;95854.11;1775213;80;21095;-68
2022/09/22 08:03:52;;;;;;;4.90;3.67;;;;;;;11.53;70.66;95849.17;1769487;81;21484;-70
2022/09/22 08:06:20;;;;;;;3.60;2.83;;;;;;;11.57;70.16;95860.12;1768556;80;21085;-70
2022/09/22 08:08:54;;;;;;;6.60;3.75;;;;;;;11.64;70.73;95859.11;1770953;81;21034;-69
2022/09/22 08:11:24;;;;;;;5.53;3.72;;;;;;;11.73;70.31;95858.52;1754407;81;20940;-69
2022/09/22 08:13:58;;;;;;;6.22;3.27;;;;;;;11.80;70.27;95859.69;1772653;81;21090;-70
2022/09/22 08:16:31;;;;;;;6.45;4.60;;;;;;;11.84;70.02;95861.38;1770312;81;21543;-69
2022/09/22 08:19:01;;;;;;;3.67;3.08;;;;;;;11.92;69.88;95859.94;1771342;81;20994;-75
2022/09/22 08:21:34;;;;;;;3.08;2.35;;;;;;;11.94;69.61;95860.76;1770034;81;20974;-73
2022/09/22 08:24:02;;;;;;;2.65;2.37;;;;;;;11.92;68.36;95873.16;1776827;81;20983;-73
2022/09/22 08:26:30;;;;;;;3.47;2.50;;;;;;;11.93;68.91;95870.06;1772267;81;21014;-72
2022/09/22 08:28:57;;;;;;;5.12;2.80;;;;;;;11.94;68.99;95862.08;1769835;80;21076;-66
2022/09/22 08:31:26;;;;;;;3.02;2.00;;;;;;;11.98;69.08;95864.23;1732293;82;20966;-73
2022/09/22 08:33:54;;;;;;;3.85;2.52;;;;;;;12.05;69.03;95859.24;1770357;80;21100;-68
2022/09/22 08:36:24;;;;;;;4.15;2.40;;;;;;;12.11;68.37;95865.72;1737259;82;21046;-68
2022/09/22 08:38:51;;;;;;;2.92;2.62;;;;;;;12.20;68.83;95864.68;1739690;82;21155;-69
2022/09/22 08:41:39;;;;;;;2.90;2.60;;;;;;;12.32;68.42;95869.69;1725555;81;21276;-74
2022/09/22 08:44:11;;;;;;;3.30;2.33;;;;;;;12.39;68.09;95870.44;1750448;81;21017;-74
2022/09/22 08:46:42;;;;;;;4.65;2.67;;;;;;;12.47;67.57;95868.49;1783787;80;21077;-73
2022/09/22 08:52:42;;;;;;;4.65;3.33;;;;;;;12.46;66.81;95861.47;1765911;80;21089;-78
2022/09/22 08:55:14;;;;;;;7.55;4.00;;;;;;;12.32;65.97;95861.33;1757882;80;21046;-77
2022/09/22 08:57:55;;;;;;;5.53;2.87;;;;;;;12.27;66.56;95861.87;1760111;80;20982;-73
2022/09/22 09:00:27;;;;;;;5.47;2.62;;;;;;;12.24;66.17;95863.69;1744860;82;21066;-74
2022/09/22 09:03:12;;;;;;;3.63;2.47;;;;;;;12.15;66.30;95860.80;1745489;82;21587;-69
2022/09/22 09:06:16;;;;;;;2.98;2.37;;;;;;;12.12;66.57;95860.87;1745684;82;21047;-70
2022/09/22 09:09:14;;;;;;;2.90;2.20;;;;;;;12.09;66.73;95867.52;1745811;82;21098;-71
2022/09/22 09:12:19;;;;;;;2.37;2.12;;;;;;;12.06;66.02;95867.12;1744742;82;21043;-70
2022/09/22 09:15:18;;;;;;;5.00;3.20;;;;;;;12.03;66.56;95861.91;1731011;82;21070;-71
2022/09/22 09:17:47;;;;;;;5.28;2.50;;;;;;;12.03;66.84;95859.72;1745456;82;21011;-71
2022/09/22 09:20:22;;;;;;;3.08;2.22;;;;;;;12.10;67.31;95860.89;1745254;82;21058;-71
2022/09/22 09:22:54;;;;;;;3.85;2.98;;;;;;;12.20;67.39;95859.39;1746507;82;21536;-70
2022/09/22 09:25:40;;;;;;;4.20;2.65;;;;;;;12.29;66.70;95864.00;1746786;82;21024;-71
2022/09/22 09:28:15;;;;;;;2.17;1.98;;;;;;;12.40;66.73;95865.13;1746000;82;21062;-69
2022/09/22 09:30:51;;;;;;;7.33;3.22;;;;;;;12.49;66.59;95857.42;1746164;82;21062;-69
2022/09/22 09:33:40;;;;;;;2.55;2.05;;;;;;;12.59;66.37;95852.34;1745998;82;21022;-70
2022/09/22 09:36:14;;;;;;;3.35;2.42;;;;;;;12.61;65.97;95849.22;1679348;85;20993;-71
2022/09/22 09:38:55;;;;;;;3.42;2.92;;;;;;;12.65;65.74;95848.69;1732801;83;21132;-70
2022/09/22 09:41:31;;;;;;;3.33;2.37;;;;;;;12.67;65.36;95845.55;1774472;81;21026;-71
2022/09/22 09:44:03;;;;;;;3.17;2.00;;;;;;;12.58;63.84;95845.33;1774624;81;21513;-71
2022/09/22 09:46:35;;;;;;;3.08;2.52;;;;;;;12.54;63.77;95837.88;1773616;81;21073;-70
2022/09/22 09:49:19;;;;;;;2.22;1.98;;;;;;;12.55;64.39;95848.91;1773685;81;22233;-70
2022/09/22 09:51:49;;;;;;;;;;;;;;;12.55;64.39;95848.91;1776851;81;21019;-71
2022/09/22 09:54:18;;;;;;;2.20;1.75;;;;;;;12.61;63.91;95845.25;1774382;81;20125;-70
2022/09/22 09:57:05;;;;;;;2.15;1.95;;;;;;;12.70;64.62;95842.83;1773941;81;20971;-70
2022/09/22 10:02:30;;;;;;;2.37;1.87;;;;;;;12.76;63.89;95854.63;1774994;80;21014;-71
2022/09/22 10:05:04;;;;;;;3.12;1.98;;;;;;;12.73;63.93;95846.76;1774730;81;21050;-71
2022/09/22 10:07:43;;;;;;;3.98;2.60;;;;;;;12.71;64.33;95851.20;1774935;81;20959;-71
2022/09/22 10:10:33;;;;;;;2.10;1.90;;;;;;;12.69;64.08;95845.94;1774630;81;21074;-71
2022/09/22 10:13:07;;;;;;;3.92;2.75;;;;;;;12.62;64.13;95843.00;1774707;81;21042;-71
2022/09/22 10:15:40;;;;;;;2.87;1.62;;;;;;;12.65;64.35;95838.99;1774493;81;21108;-71
2022/09/22 10:18:25;;;;;;;;;;;;;;;12.74;64.70;95833.92;1777334;81;20994;-72
2022/09/22 10:21:07;;;;;;;1.87;1.75;;;;;;;12.91;64.83;95836.19;1774561;81;20097;-71
2022/09/22 10:23:34;;;;;;;3.45;2.02;;;;;;;13.07;63.72;95834.03;1762633;81;20999;-71
2022/09/22 10:26:17;;;;;;;2.12;1.90;;;;;;;13.31;62.62;95818.88;1774570;81;21553;-71
2022/09/22 10:28:49;;;;;;;4.25;2.37;;;;;;;13.56;63.04;95823.09;1774818;81;20979;-71
2022/09/22 10:31:25;;;;;;;2.77;2.42;;;;;;;13.86;62.45;95821.84;1774695;81;21021;-71
2022/09/22 10:33:57;;;;;;;2.80;2.08;;;;;;;13.87;61.32;95820.92;1774911;81;21442;-71
2022/09/22 10:36:26;;;;;;;2.20;1.98;;;;;;;13.80;60.67;95819.34;1773817;81;21540;-71
2022/09/22 10:38:54;;;;;;;3.12;2.42;;;;;;;13.73;60.54;95817.30;1774656;81;21501;-71
2022/09/22 10:41:30;;;;;;;2.40;2.08;;;;;;;13.69;60.81;95817.00;1774831;81;21046;-71
2022/09/22 10:44:17;;;;;;;4.03;2.25;;;;;;;13.66;61.00;95829.45;1774523;81;21552;-71
2022/09/22 10:47:07;;;;;;;3.12;2.17;;;;;;;13.59;61.62;95827.44;1774722;80;21046;-71
2022/09/22 10:50:05;;;;;;;5.40;2.47;;;;;;;13.41;61.26;95824.81;1774620;81;21115;-71
2022/09/22 10:52:55;;;;;;;2.98;2.27;;;;;;;13.32;61.95;95818.42;1774465;81;21016;-71
2022/09/22 10:55:52;;;;;;;6.15;3.90;;;;;;;13.26;60.76;95815.45;1773947;81;21590;-72
2022/09/22 10:58:43;;;;;;;3.08;2.47;;;;;;;13.46;61.52;95808.34;1774249;81;21027;-71
2022/09/22 11:01:24;;;;;;;2.80;2.47;;;;;;;14.25;62.19;95805.22;1765835;81;21093;-72
2022/09/22 11:04:11;;;;;;;2.58;2.37;;;;;;;15.32;59.85;95794.78;1774470;81;21063;-72
2022/09/22 11:13:03;;;;;;;3.08;2.22;;;;;;;16.55;56.66;95779.23;1774428;81;21426;-71
2022/09/22 11:16:08;;;;;;;2.60;2.40;;;;;;;17.32;50.38;95764.64;1774398;81;20984;-73
2022/09/22 11:19:05;;;;;;;1.72;1.62;;;;;;;18.03;50.19;95761.11;1774819;81;21098;-72
2022/09/22 11:22:07;;;;;;;2.15;1.82;;;;;;;18.72;47.74;95753.88;1748601;81;21525;-72
2022/09/22 11:24:51;;;;;;;3.15;1.90;;;;;;;19.20;43.40;95751.98;1774661;80;21015;-72
2022/09/22 11:27:44;;;;;;;3.17;1.90;;;;;;;19.52;42.57;95750.81;1773949;81;21010;-72
2022/09/22 11:30:22;;;;;;;;;;;;;;;18.89;43.35;95747.75;1777076;81;20983;-73
2022/09/22 11:33:18;;;;;;;5.25;2.05;;;;;;;18.38;43.95;95747.47;1774595;81;20132;-71
2022/09/22 11:36:27;;;;;;;4.53;2.10;;;;;;;17.95;44.85;95746.30;1775100;81;21508;-72
2022/09/22 11:39:27;;;;;;;4.08;2.58;;;;;;;17.53;46.25;95753.03;1763492;81;20984;-72
2022/09/22 11:42:08;;;;;;;4.10;3.50;;;;;;;17.68;47.68;95756.36;1773935;81;21015;-72
2022/09/22 11:44:42;;;;;;;4.45;2.67;;;;;;;17.18;47.73;95755.87;1769039;81;21094;-72
2022/09/22 11:47:40;;;;;;;3.90;2.30;;;;;;;16.51;48.80;95771.45;1768908;81;21107;-71
2022/09/22 11:50:43;;;;;;;2.67;1.77;;;;;;;15.69;51.08;95774.47;1769468;81;21038;-71
2022/09/22 11:53:55;;;;;;;2.30;2.10;;;;;;;14.67;53.73;95780.97;1769143;81;21091;-71
2022/09/22 11:56:40;;;;;;;1.62;1.52;;;;;;;13.93;57.04;95784.06;1745437;82;21022;-71
2022/09/22 11:59:53;;;;;;;1.40;1.30;;;;;;;13.40;60.11;95785.49;1745499;82;21018;-71
2022/09/22 12:02:40;;;;;;;1.98;1.37;;;;;;;13.13;59.88;95786.20;1767565;81;20968;-71
2022/09/22 12:05:15;;;;;;;1.55;1.45;;;;;;;12.78;61.74;95790.13;1769131;81;21035;-70
2022/09/22 12:07:50;;;;;;;1.65;1.35;;;;;;;12.46;62.15;95784.27;1766214;81;21042;-70
2022/09/22 12:10:31;;;;;;;1.42;1.32;;;;;;;12.24;62.98;95786.97;1768236;81;21537;-70
2022/09/22 12:12:59;;;;;;;1.82;1.40;;;;;;;12.10;65.61;95784.64;1769216;81;21055;-70
2022/09/22 12:15:37;;;;;;;1.55;1.45;;;;;;;12.05;65.33;95784.73;1769092;81;21057;-70
2022/09/22 12:18:18;;;;;;;2.12;1.70;;;;;;;11.79;67.40;95789.22;1769618;81;21016;-70
2022/09/22 12:21:06;;;;;;;1.92;1.47;;;;;;;11.79;67.40;95789.22;1768789;81;21062;-69
2022/09/22 12:23:42;;;;;;;3.65;2.40;;;;;;;11.67;68.41;95783.72;1733925;81;21469;-70
2022/09/22 12:26:13;;;;;;;2.00;1.77;;;;;;;11.64;69.31;95786.85;1769020;81;21067;-70